Time;durP1;ratioP1;P1;durP2;ratioP2;P2;SDS_P1;SDS_P2;PMS_P1;PMS_P2;Temp;Humidity;BMP_temperature;BMP_pressure;BME280_temperature;BME280_humidity;BME280_pressure;Samples;Min_cycle;Max_cycle;Signal;HPM_P1;HPM_P2
2022/03/10 00:01:22;;;;;;;;;;;3.70;99.90;;;;;;5118147;27;19923;-81
2022/03/10 00:03:48;;;;;;;;;;;3.60;99.90;;;;;;5117817;27;19923;-80
2022/03/10 00:06:13;;;;;;;;;;;3.50;99.90;;;;;;5118007;27;20347;-81
2022/03/10 00:08:39;;;;;;;;;;;3.40;99.90;;;;;;5134792;27;20388;-83
2022/03/10 00:11:05;;;;;;;;;;;3.50;99.90;;;;;;5117916;27;19928;-81
2022/03/10 00:13:31;;;;;;;;;;;3.40;99.90;;;;;;5135067;27;20346;-81
2022/03/10 00:15:59;;;;;;;;;;;3.30;99.90;;;;;;5134592;27;20294;-81
2022/03/10 00:18:25;;;;;;;;;;;3.30;99.90;;;;;;5117459;27;20039;-81
2022/03/10 00:20:51;;;;;;;;;;;3.20;99.90;;;;;;5117549;27;19927;-81
2022/03/10 00:23:17;;;;;;;;;;;3.20;99.90;;;;;;5134799;27;20010;-81
2022/03/10 00:25:42;;;;;;;;;;;3.20;99.90;;;;;;5117492;27;19931;-81
2022/03/10 00:28:08;;;;;;;;;;;3.20;99.90;;;;;;5134794;27;19923;-80
2022/03/10 00:30:33;;;;;;;;;;;3.20;99.90;;;;;;5134646;27;19931;-81
2022/03/10 00:32:59;;;;;;;;;;;3.10;99.90;;;;;;5117296;27;19923;-81
2022/03/10 00:35:25;;;;;;;;;;;3.20;99.90;;;;;;5134438;27;19934;-81
2022/03/10 00:37:50;;;;;;;;;;;3.20;99.90;;;;;;5134382;27;20031;-81
2022/03/10 00:40:16;;;;;;;;;;;3.10;99.90;;;;;;5116941;27;19923;-81
2022/03/10 00:42:42;;;;;;;;;;;3.10;99.90;;;;;;5134025;27;19930;-84
2022/03/10 00:45:08;;;;;;;;;;;3.10;99.90;;;;;;5134045;27;20291;-82
2022/03/10 00:47:34;;;;;;;;;;;3.00;99.90;;;;;;5134320;27;19927;-81
2022/03/10 00:50:00;;;;;;;;;;;3.00;99.90;;;;;;5134132;27;19923;-80
2022/03/10 00:52:26;;;;;;;;;;;3.00;99.90;;;;;;5116697;27;19924;-81
2022/03/10 00:54:52;;;;;;;;;;;3.00;99.90;;;;;;5134072;27;19929;-81
2022/03/10 00:57:17;;;;;;;;;;;3.00;99.90;;;;;;5083803;28;19962;-81
2022/03/10 00:59:43;;;;;;;;;;;3.00;99.90;;;;;;5129846;27;19928;-81
2022/03/10 01:02:09;;;;;;;;;;;3.00;99.90;;;;;;5112736;28;19928;-81
2022/03/10 01:04:34;;;;;;;;;;;3.10;99.90;;;;;;5129845;27;19932;-81
2022/03/10 01:07:00;;;;;;;;;;;3.00;99.90;;;;;;5129657;27;19924;-81
2022/03/10 01:09:26;;;;;;;;;;;3.00;99.90;;;;;;5112610;28;20345;-81
2022/03/10 01:11:52;;;;;;;;;;;3.00;99.90;;;;;;5112930;28;19973;-81
2022/03/10 01:14:17;;;;;;;;;;;3.00;99.90;;;;;;5130651;27;19924;-81
2022/03/10 01:16:43;;;;;;;;;;;3.00;99.90;;;;;;5130165;27;19923;-81
2022/03/10 01:19:09;;;;;;;;;;;3.00;99.90;;;;;;5113166;28;19924;-81
2022/03/10 01:21:34;;;;;;;;;;;2.90;99.90;;;;;;5113227;28;20292;-81
2022/03/10 01:24:00;;;;;;;;;;;2.90;99.90;;;;;;5112900;28;19923;-81
2022/03/10 01:26:26;;;;;;;;;;;2.90;99.90;;;;;;5113163;28;20261;-81
2022/03/10 01:28:51;;;;;;;;;;;2.90;99.90;;;;;;5130189;27;19931;-81
2022/03/10 01:31:17;;;;;;;;;;;2.80;99.90;;;;;;5113028;28;20022;-81
2022/03/10 01:33:42;;;;;;;;;;;2.80;99.90;;;;;;5130187;27;19924;-81
2022/03/10 01:36:08;;;;;;;;;;;2.80;99.90;;;;;;5129750;27;19934;-81
2022/03/10 01:38:39;;;;;;;;;;;2.80;99.90;;;;;;5130195;28;20430;-81
2022/03/10 01:41:05;;;;;;;;;;;2.80;99.90;;;;;;5112927;28;19928;-81
2022/03/10 01:43:30;;;;;;;;;;;2.80;99.90;;;;;;5113155;28;19962;-81
2022/03/10 01:45:57;;;;;;;;;;;2.80;99.90;;;;;;5112800;28;19928;-81
2022/03/10 01:48:22;;;;;;;;;;;2.80;99.90;;;;;;5112982;28;19924;-81
2022/03/10 01:50:48;;;;;;;;;;;2.80;99.90;;;;;;5112968;28;19923;-82
2022/03/10 01:53:14;;;;;;;;;;;2.80;99.90;;;;;;5117064;28;19931;-81
2022/03/10 01:55:39;;;;;;;;;;;2.70;99.90;;;;;;5099914;28;19946;-81
2022/03/10 01:58:05;;;;;;;;;;;2.70;99.90;;;;;;5116200;28;19976;-81
2022/03/10 02:00:31;;;;;;;;;;;2.70;99.90;;;;;;5134151;27;19923;-80
2022/03/10 02:02:56;;;;;;;;;;;2.60;99.90;;;;;;5116878;28;19924;-80
2022/03/10 02:05:22;;;;;;;;;;;2.60;99.90;;;;;;5116826;28;19947;-81
2022/03/10 02:10:32;;;;;;;;;;;2.50;99.90;;;;;;5150670;27;19973;-81
2022/03/10 02:12:57;;;;;;;;;;;2.50;99.90;;;;;;5133434;27;19923;-81
2022/03/10 02:18:09;;;;;;;;;;;2.50;99.90;;;;;;5150948;27;20375;-81
2022/03/10 02:20:35;;;;;;;;;;;2.50;99.90;;;;;;5133371;27;19932;-81
2022/03/10 02:23:01;;;;;;;;;;;2.40;99.90;;;;;;5133516;27;20326;-80
2022/03/10 02:25:27;;;;;;;;;;;2.40;99.90;;;;;;5116533;28;19928;-81
2022/03/10 02:27:54;;;;;;;;;;;2.30;99.90;;;;;;5116317;28;19924;-84
2022/03/10 02:30:21;;;;;;;;;;;2.30;99.90;;;;;;5133815;27;20283;-80
2022/03/10 02:32:46;;;;;;;;;;;2.20;99.90;;;;;;5133657;27;19931;-81
2022/03/10 02:35:13;;;;;;;;;;;2.20;99.90;;;;;;5115698;28;19924;-81
2022/03/10 02:37:38;;;;;;;;;;;2.10;99.90;;;;;;5116349;28;19954;-81
2022/03/10 02:40:04;;;;;;;;;;;2.10;99.90;;;;;;5116141;28;20336;-81
2022/03/10 02:42:31;;;;;;;;;;;2.10;99.90;;;;;;5133116;27;19923;-81
2022/03/10 02:44:57;;;;;;;;;;;2.00;99.90;;;;;;5133247;27;20383;-81
2022/03/10 02:47:23;;;;;;;;;;;1.90;99.90;;;;;;5116122;28;19939;-81
2022/03/10 02:49:48;;;;;;;;;;;1.80;99.90;;;;;;5115762;28;19924;-81
2022/03/10 02:52:14;;;;;;;;;;;1.70;99.90;;;;;;5115841;28;19928;-81
2022/03/10 02:54:40;;;;;;;;;;;1.60;99.90;;;;;;5133067;27;19923;-81
2022/03/10 02:57:05;;;;;;;;;;;1.60;99.90;;;;;;5115136;28;19973;-81
2022/03/10 02:59:31;;;;;;;;;;;1.60;99.90;;;;;;5115805;28;19924;-81
2022/03/10 03:01:58;;;;;;;;;;;1.60;99.90;;;;;;5115414;28;19930;-82
2022/03/10 03:04:24;;;;;;;;;;;1.60;99.90;;;;;;5115815;28;19930;-80
2022/03/10 03:06:49;;;;;;;;;;;1.60;99.90;;;;;;5115496;28;19928;-81
2022/03/10 03:09:15;;;;;;;;;;;1.60;99.90;;;;;;5132627;27;20279;-80
2022/03/10 03:11:40;;;;;;;;;;;1.60;99.90;;;;;;5115464;28;19930;-81
2022/03/10 03:14:06;;;;;;;;;;;1.60;99.90;;;;;;5132497;27;19928;-80
2022/03/10 03:16:32;;;;;;;;;;;1.50;99.90;;;;;;5132442;27;19923;-80
2022/03/10 03:18:57;;;;;;;;;;;1.60;99.90;;;;;;5115414;28;19924;-84
2022/03/10 03:21:26;;;;;;;;;;;1.60;99.90;;;;;;5115373;28;19971;-80
2022/03/10 03:23:51;;;;;;;;;;;1.60;99.90;;;;;;5115423;28;20398;-81
2022/03/10 03:26:17;;;;;;;;;;;1.60;99.90;;;;;;5115191;28;19970;-81
2022/03/10 03:28:43;;;;;;;;;;;1.50;99.90;;;;;;5132169;27;19923;-80
2022/03/10 03:31:12;;;;;;;;;;;1.50;99.90;;;;;;5115203;28;19935;-80
2022/03/10 03:33:37;;;;;;;;;;;1.50;99.90;;;;;;5132356;27;19994;-80
2022/03/10 03:36:03;;;;;;;;;;;1.60;99.90;;;;;;5114419;28;19978;-80
2022/03/10 03:38:29;;;;;;;;;;;1.50;99.90;;;;;;5115109;28;19928;-83
2022/03/10 03:40:54;;;;;;;;;;;1.50;99.90;;;;;;5115099;28;19928;-80
2022/03/10 03:43:20;;;;;;;;;;;1.50;99.90;;;;;;5114739;28;19935;-81
2022/03/10 03:45:45;;;;;;;;;;;1.60;99.90;;;;;;5131412;27;20283;-81
2022/03/10 03:48:11;;;;;;;;;;;1.50;99.90;;;;;;5131061;27;19927;-81
2022/03/10 03:50:36;;;;;;;;;;;1.50;99.90;;;;;;5114118;28;19923;-80
2022/03/10 03:53:02;;;;;;;;;;;1.60;99.90;;;;;;5114030;28;19923;-81
2022/03/10 03:55:28;;;;;;;;;;;1.60;99.90;;;;;;5131275;27;19975;-80
2022/03/10 03:57:53;;;;;;;;;;;1.60;99.90;;;;;;5131356;27;19967;-80
2022/03/10 04:00:19;;;;;;;;;;;1.70;99.90;;;;;;5114639;28;20028;-81
2022/03/10 04:02:45;;;;;;;;;;;1.60;99.90;;;;;;5114654;28;20276;-81
2022/03/10 04:05:11;;;;;;;;;;;1.60;99.90;;;;;;5097466;28;19923;-80
2022/03/10 04:07:36;;;;;;;;;;;1.60;99.90;;;;;;5131652;27;19924;-81
2022/03/10 04:10:03;;;;;;;;;;;1.60;99.90;;;;;;5131580;27;19924;-81
2022/03/10 04:12:28;;;;;;;;;;;1.60;99.90;;;;;;5131600;27;19966;-81
2022/03/10 04:14:54;;;;;;;;;;;1.60;99.90;;;;;;5130267;27;19966;-80
2022/03/10 04:17:19;;;;;;;;;;;1.50;99.90;;;;;;5113721;28;19923;-80
2022/03/10 04:19:45;;;;;;;;;;;1.50;99.90;;;;;;5131413;27;19923;-81
2022/03/10 04:22:10;;;;;;;;;;;1.60;99.90;;;;;;5114106;28;19924;-81
2022/03/10 04:24:36;;;;;;;;;;;1.50;99.90;;;;;;5131444;27;20010;-80
2022/03/10 04:27:03;;;;;;;;;;;1.50;99.90;;;;;;5114105;28;20368;-80
2022/03/10 04:29:29;;;;;;;;;;;1.50;99.90;;;;;;5115092;28;19924;-80
2022/03/10 04:31:54;;;;;;;;;;;1.50;99.90;;;;;;5114120;28;20269;-80
2022/03/10 04:34:20;;;;;;;;;;;1.50;99.90;;;;;;5113793;28;19931;-81
2022/03/10 04:36:46;;;;;;;;;;;1.50;99.90;;;;;;5113760;28;19924;-81
2022/03/10 04:39:11;;;;;;;;;;;1.50;99.90;;;;;;5130867;27;19924;-81
2022/03/10 04:41:37;;;;;;;;;;;1.50;99.90;;;;;;5130976;27;19924;-80
2022/03/10 04:44:03;;;;;;;;;;;1.50;99.90;;;;;;5113724;28;19924;-80
2022/03/10 04:46:29;;;;;;;;;;;1.50;99.90;;;;;;5113495;28;19935;-81
2022/03/10 04:48:55;;;;;;;;;;;1.50;99.90;;;;;;5130607;27;20446;-80
2022/03/10 04:51:20;;;;;;;;;;;1.40;99.90;;;;;;5113234;28;19931;-80
2022/03/10 04:53:46;;;;;;;;;;;1.40;99.90;;;;;;5130780;27;20338;-80
2022/03/10 04:56:12;;;;;;;;;;;1.50;99.90;;;;;;5112849;28;19965;-81
2022/03/10 04:58:37;;;;;;;;;;;1.40;99.90;;;;;;5096790;28;19924;-80
2022/03/10 05:01:03;;;;;;;;;;;1.40;99.90;;;;;;5113674;28;20360;-80
2022/03/10 05:03:30;;;;;;;;;;;1.40;99.90;;;;;;5130672;27;20367;-80
2022/03/10 05:05:56;;;;;;;;;;;1.40;99.90;;;;;;5113454;28;20014;-80
2022/03/10 05:08:22;;;;;;;;;;;1.40;99.90;;;;;;5079498;28;20003;-80
2022/03/10 05:10:47;;;;;;;;;;;1.30;99.90;;;;;;5079637;28;19924;-80
2022/03/10 05:13:13;;;;;;;;;;;1.30;99.90;;;;;;5147497;27;19931;-81
2022/03/10 05:15:38;;;;;;;;;;;1.30;99.90;;;;;;5130494;27;19924;-80
2022/03/10 05:18:04;;;;;;;;;;;1.30;99.90;;;;;;5113237;28;20008;-80
2022/03/10 05:20:30;;;;;;;;;;;1.30;99.90;;;;;;5147433;27;19927;-81
2022/03/10 05:23:00;;;;;;;;;;;1.20;99.90;;;;;;5113312;28;19924;-80
2022/03/10 05:25:31;;;;;;;;;;;1.20;99.90;;;;;;5095476;28;19931;-81
2022/03/10 05:27:56;;;;;;;;;;;1.20;99.90;;;;;;5112973;28;20018;-80
2022/03/10 05:30:22;;;;;;;;;;;1.10;99.90;;;;;;5079213;28;19959;-81
2022/03/10 05:32:48;;;;;;;;;;;1.20;99.90;;;;;;5096043;28;19928;-80
2022/03/10 05:35:14;;;;;;;;;;;1.10;99.90;;;;;;5129976;27;19928;-81
2022/03/10 05:37:40;;;;;;;;;;;1.10;99.90;;;;;;5112895;28;19923;-81
2022/03/10 05:40:10;;;;;;;;;;;1.10;99.90;;;;;;5095268;28;19928;-80
2022/03/10 05:42:39;;;;;;;;;;;1.20;99.90;;;;;;5112717;28;19923;-80
2022/03/10 05:45:05;;;;;;;;;;;1.30;99.90;;;;;;5112827;28;20445;-80
2022/03/10 05:47:31;;;;;;;;;;;1.20;99.90;;;;;;5112744;28;19924;-81
2022/03/10 05:49:56;;;;;;;;;;;1.20;99.90;;;;;;5130048;28;20011;-81
2022/03/10 05:52:22;;;;;;;;;;;1.20;99.90;;;;;;5079823;28;20363;-81
2022/03/10 05:54:47;;;;;;;;;;;1.20;99.90;;;;;;5112922;28;19925;-81
2022/03/10 05:57:13;;;;;;;;;;;1.20;99.90;;;;;;5112024;28;19931;-81
2022/03/10 05:59:39;;;;;;;;;;;1.10;99.90;;;;;;5112091;28;20043;-83
2022/03/10 06:02:04;;;;;;;;;;;1.10;99.90;;;;;;5111833;28;19972;-81
2022/03/10 06:04:30;;;;;;;;;;;1.10;99.90;;;;;;5129100;28;19928;-81
2022/03/10 06:06:55;;;;;;;;;;;1.00;99.90;;;;;;5147307;27;19927;-80
2022/03/10 06:09:21;;;;;;;;;;;1.00;99.90;;;;;;5129536;28;19927;-81
2022/03/10 06:11:46;;;;;;;;;;;1.00;99.90;;;;;;5129912;28;19927;-80
2022/03/10 06:14:12;;;;;;;;;;;1.00;99.90;;;;;;5147113;27;19923;-81
2022/03/10 06:16:38;;;;;;;;;;;1.00;99.90;;;;;;5077802;28;19923;-80
2022/03/10 06:19:03;;;;;;;;;;;1.00;99.90;;;;;;5095233;28;19970;-81
2022/03/10 06:21:29;;;;;;;;;;;1.10;99.90;;;;;;5111924;28;19928;-82
2022/03/10 06:23:55;;;;;;;;;;;1.00;99.90;;;;;;5111555;28;19932;-81
2022/03/10 06:26:20;;;;;;;;;;;1.10;99.90;;;;;;5110722;28;20363;-80
2022/03/10 06:28:47;;;;;;;;;;;1.00;99.90;;;;;;5129217;28;19924;-81
2022/03/10 06:31:12;;;;;;;;;;;1.10;99.90;;;;;;5095387;28;20022;-80
2022/03/10 06:33:38;;;;;;;;;;;1.10;99.90;;;;;;5112343;28;20030;-80
2022/03/10 06:36:05;;;;;;;;;;;1.10;99.90;;;;;;5095027;28;19927;-81
2022/03/10 06:38:31;;;;;;;;;;;1.10;99.90;;;;;;5115028;28;19923;-81
2022/03/10 06:40:56;;;;;;;;;;;1.10;99.90;;;;;;5116106;28;20023;-81
2022/03/10 06:43:22;;;;;;;;;;;1.10;99.90;;;;;;5081861;28;19976;-81
2022/03/10 06:45:48;;;;;;;;;;;1.10;99.90;;;;;;5116126;28;19924;-80
2022/03/10 06:48:13;;;;;;;;;;;1.10;99.90;;;;;;5132931;27;19927;-80
2022/03/10 06:50:39;;;;;;;;;;;1.10;99.90;;;;;;5132345;27;19976;-81
2022/03/10 06:53:05;;;;;;;;;;;1.10;99.90;;;;;;5150004;27;19927;-80
2022/03/10 06:55:30;;;;;;;;;;;1.20;99.90;;;;;;5149590;27;19931;-80
2022/03/10 06:57:56;;;;;;;;;;;1.20;99.90;;;;;;5098419;28;19924;-80
2022/03/10 07:00:23;;;;;;;;;;;1.30;99.90;;;;;;5115287;28;20273;-81
2022/03/10 07:02:49;;;;;;;;;;;1.30;99.90;;;;;;5115522;28;19973;-80
2022/03/10 07:05:15;;;;;;;;;;;1.40;99.90;;;;;;5115296;28;20380;-79
2022/03/10 07:07:40;;;;;;;;;;;1.40;99.90;;;;;;5115146;28;19924;-80
2022/03/10 07:10:07;;;;;;;;;;;1.50;99.90;;;;;;5115566;28;19931;-80
2022/03/10 07:12:34;;;;;;;;;;;1.60;99.90;;;;;;5098270;28;19930;-79
2022/03/10 07:15:00;;;;;;;;;;;1.60;99.90;;;;;;5098557;28;19924;-80
2022/03/10 07:17:25;;;;;;;;;;;1.80;99.90;;;;;;5097416;28;20014;-81
2022/03/10 07:19:51;;;;;;;;;;;1.90;99.90;;;;;;5115428;28;19924;-81
2022/03/10 07:22:18;;;;;;;;;;;2.00;99.90;;;;;;5115166;28;19924;-80
2022/03/10 07:24:43;;;;;;;;;;;2.10;99.90;;;;;;5114993;28;19928;-80
2022/03/10 07:27:09;;;;;;;;;;;2.20;99.90;;;;;;5115409;28;19924;-80
2022/03/10 07:29:35;;;;;;;;;;;2.20;99.90;;;;;;5115145;28;19978;-80
2022/03/10 07:32:00;;;;;;;;;;;2.30;99.90;;;;;;5114719;28;19920;-81
2022/03/10 07:34:26;;;;;;;;;;;2.40;99.90;;;;;;5131836;27;19931;-80
2022/03/10 07:36:53;;;;;;;;;;;2.50;99.90;;;;;;5130977;27;19993;-80
2022/03/10 07:39:18;;;;;;;;;;;2.60;99.90;;;;;;5096861;28;19924;-85
2022/03/10 07:41:44;;;;;;;;;;;2.80;99.90;;;;;;5130060;27;19934;-78
2022/03/10 07:44:10;;;;;;;;;;;2.90;99.90;;;;;;5131054;27;19972;-81
2022/03/10 07:46:35;;;;;;;;;;;2.90;99.90;;;;;;5114131;28;20278;-79
2022/03/10 07:49:02;;;;;;;;;;;3.10;99.90;;;;;;5113469;28;19928;-79
2022/03/10 07:51:27;;;;;;;;;;;3.10;99.90;;;;;;5080871;28;19978;-80
2022/03/10 07:53:53;;;;;;;;;;;3.30;99.90;;;;;;5097681;28;20004;-79
2022/03/10 07:56:18;;;;;;;;;;;3.30;99.90;;;;;;5097181;28;20385;-80
2022/03/10 07:58:44;;;;;;;;;;;3.40;99.90;;;;;;5113715;28;19928;-81
2022/03/10 08:01:09;;;;;;;;;;;3.70;99.90;;;;;;5093929;28;19984;-82
2022/03/10 08:03:36;;;;;;;;;;;3.70;99.90;;;;;;5112500;28;20018;-82
2022/03/10 08:06:02;;;;;;;;;;;3.80;99.90;;;;;;5130831;27;19923;-82
2022/03/10 08:08:27;;;;;;;;;;;3.90;99.90;;;;;;5096616;28;20022;-82
2022/03/10 08:10:53;;;;;;;;;;;4.00;99.90;;;;;;5129887;27;19963;-82
2022/03/10 08:13:20;;;;;;;;;;;4.10;99.90;;;;;;5130514;27;19935;-83
2022/03/10 08:15:45;;;;;;;;;;;4.30;99.90;;;;;;5095847;28;19966;-82
2022/03/10 08:18:11;;;;;;;;;;;4.50;99.90;;;;;;5092880;28;19924;-82
2022/03/10 08:20:39;;;;;;;;;;;4.50;99.90;;;;;;5145831;27;19947;-82
2022/03/10 08:23:05;;;;;;;;;;;4.60;99.90;;;;;;5096135;28;19932;-82
2022/03/10 08:25:30;;;;;;;;;;;4.70;99.90;;;;;;5095594;28;19931;-84
2022/03/10 08:27:56;;;;;;;;;;;4.80;99.90;;;;;;5113285;28;20018;-81
2022/03/10 08:30:22;;;;;;;;;;;5.00;99.90;;;;;;5096393;28;19930;-81
2022/03/10 08:32:47;;;;;;;;;;;5.10;99.90;;;;;;5095589;28;19923;-82
2022/03/10 08:35:16;;;;;;;;;;;5.30;99.90;;;;;;5096182;28;19929;-82
2022/03/10 08:37:43;;;;;;;;;;;5.40;99.90;;;;;;5095890;28;19923;-82
2022/03/10 08:40:10;;;;;;;;;;;5.50;99.90;;;;;;5113324;28;20360;-82
2022/03/10 08:42:36;;;;;;;;;;;5.60;99.90;;;;;;5112167;28;20371;-82
2022/03/10 08:45:01;;;;;;;;;;;5.70;99.90;;;;;;5112851;28;20006;-83
2022/03/10 08:47:28;;;;;;;;;;;5.80;99.90;;;;;;5112655;28;19931;-82
2022/03/10 08:49:54;;;;;;;;;;;5.90;99.90;;;;;;5095777;28;20376;-82
2022/03/10 08:52:20;;;;;;;;;;;6.00;99.90;;;;;;5130161;27;19978;-82
2022/03/10 08:54:45;;;;;;;;;;;6.20;99.90;;;;;;5129718;27;19923;-82
2022/03/10 08:57:11;;;;;;;;;;;6.40;99.90;;;;;;5094803;28;19923;-82
2022/03/10 08:59:37;;;;;;;;;;;6.50;99.90;;;;;;5112608;28;19973;-82
2022/03/10 09:02:02;;;;;;;;;;;6.60;99.90;;;;;;5095353;28;19924;-82
2022/03/10 09:04:29;;;;;;;;;;;6.80;99.90;;;;;;5129884;27;19923;-81
2022/03/10 09:06:54;;;;;;;;;;;6.80;99.90;;;;;;5095703;28;20811;-82
2022/03/10 09:09:20;;;;;;;;;;;6.90;99.90;;;;;;5129883;27;19923;-82
2022/03/10 09:11:46;;;;;;;;;;;6.90;99.90;;;;;;5146559;27;19931;-82
2022/03/10 09:14:11;;;;;;;;;;;6.80;99.90;;;;;;5112636;28;19969;-82
2022/03/10 09:16:38;;;;;;;;;;;6.80;99.90;;;;;;5111805;28;19924;-82
2022/03/10 09:19:03;;;;;;;;;;;6.90;99.90;;;;;;5095537;28;19924;-82
2022/03/10 09:21:29;;;;;;;;;;;6.90;99.90;;;;;;5095627;28;19947;-82
2022/03/10 09:23:55;;;;;;;;;;;6.90;99.90;;;;;;5129164;27;19928;-82
2022/03/10 09:26:20;;;;;;;;;;;7.00;99.90;;;;;;5112476;28;19927;-82
2022/03/10 09:28:46;;;;;;;;;;;7.00;99.90;;;;;;5112317;28;19924;-82
2022/03/10 09:31:12;;;;;;;;;;;6.90;99.90;;;;;;5111801;28;19996;-82
2022/03/10 09:33:39;;;;;;;;;;;7.00;99.90;;;;;;5094101;28;20360;-82
2022/03/10 09:36:05;;;;;;;;;;;7.10;99.90;;;;;;5101643;28;20380;-83
2022/03/10 09:38:30;;;;;;;;;;;7.10;99.90;;;;;;5095284;28;19924;-82
2022/03/10 09:40:56;;;;;;;;;;;7.00;99.90;;;;;;5112051;28;19924;-82
2022/03/10 09:43:22;;;;;;;;;;;7.10;99.90;;;;;;5111765;28;19931;-82
2022/03/10 09:45:48;;;;;;;;;;;7.10;99.90;;;;;;5111524;28;19924;-80
2022/03/10 09:48:14;;;;;;;;;;;7.10;99.90;;;;;;5112365;28;19930;-82
2022/03/10 09:50:40;;;;;;;;;;;7.20;99.90;;;;;;5112206;28;19924;-83
2022/03/10 09:53:05;;;;;;;;;;;7.30;99.90;;;;;;5112278;28;20400;-81
2022/03/10 09:55:31;;;;;;;;;;;7.40;99.90;;;;;;5110996;28;19923;-80
2022/03/10 09:57:58;;;;;;;;;;;7.40;99.90;;;;;;5110770;28;19924;-82
2022/03/10 10:00:24;;;;;;;;;;;7.60;99.90;;;;;;5112081;28;19923;-81
2022/03/10 10:02:51;;;;;;;;;;;7.70;99.90;;;;;;5094454;28;19992;-83
2022/03/10 10:05:46;;;;;;;;;;;7.90;99.90;;;;;;5122900;28;19972;-83
2022/03/10 10:08:14;;;;;;;;;;;8.00;99.90;;;;;;5076172;28;19931;-83
2022/03/10 10:10:44;;;;;;;;;;;8.10;99.90;;;;;;5092819;28;20472;-83
2022/03/10 10:13:22;;;;;;;;;;;8.10;99.90;;;;;;5112620;28;19924;-83
2022/03/10 10:15:52;;;;;;;;;;;8.10;99.90;;;;;;5130555;27;20007;-83
2022/03/10 10:18:19;;;;;;;;;;;8.20;99.90;;;;;;5095224;28;19975;-82
2022/03/10 10:20:46;;;;;;;;;;;8.40;99.90;;;;;;5095105;28;19932;-82
2022/03/10 10:23:38;;;;;;;;;;;8.70;99.90;;;;;;5081625;28;19932;-81
2022/03/10 10:26:09;;;;;;;;;;;9.00;99.90;;;;;;5110700;28;19935;-81
2022/03/10 10:28:35;;;;;;;;;;;9.40;99.90;;;;;;5114692;28;19961;-81
2022/03/10 10:31:01;;;;;;;;;;;9.80;99.90;;;;;;5114936;28;20314;-82
2022/03/10 10:33:28;;;;;;;;;;;10.10;99.90;;;;;;5116186;27;19923;-82
2022/03/10 10:36:13;;;;;;;;;;;10.30;99.90;;;;;;5094849;28;19924;-82
2022/03/10 10:38:39;;;;;;;;;;;10.60;99.90;;;;;;5094373;28;19928;-82
2022/03/10 10:41:14;;;;;;;;;;;10.80;99.90;;;;;;5113271;28;19932;-81
2022/03/10 10:43:41;;;;;;;;;;;11.10;99.90;;;;;;5098536;28;19977;-81
2022/03/10 10:46:06;;;;;;;;;;;11.30;99.90;;;;;;5115690;28;19978;-82
2022/03/10 10:48:44;;;;;;;;;;;11.30;99.60;;;;;;5115624;28;20320;-81
2022/03/10 10:51:11;;;;;;;;;;;11.20;99.50;;;;;;5098449;28;19935;-81
2022/03/10 10:53:39;;;;;;;;;;;11.30;99.40;;;;;;5115188;28;20406;-82
2022/03/10 10:56:05;;;;;;;;;;;11.40;99.00;;;;;;5080338;28;20382;-81
2022/03/10 10:58:30;;;;;;;;;;;11.30;98.00;;;;;;5114963;28;19971;-81
2022/03/10 11:00:57;;;;;;;;;;;11.40;99.00;;;;;;5149890;27;19923;-81
2022/03/10 11:03:24;;;;;;;;;;;11.30;98.50;;;;;;5115450;28;19923;-82
2022/03/10 11:05:50;;;;;;;;;;;11.20;98.90;;;;;;5114506;28;20284;-83
2022/03/10 11:08:17;;;;;;;;;;;11.20;99.50;;;;;;5114628;28;19924;-82
2022/03/10 11:10:42;;;;;;;;;;;11.20;98.90;;;;;;5097719;28;19992;-82
2022/03/10 11:13:08;;;;;;;;;;;11.30;99.20;;;;;;5114124;28;20394;-81
2022/03/10 11:15:33;;;;;;;;;;;11.40;99.20;;;;;;5111408;28;20019;-81
2022/03/10 11:18:00;;;;;;;;;;;11.60;99.10;;;;;;5131378;27;19953;-83
2022/03/10 11:20:26;;;;;;;;;;;11.90;98.70;;;;;;5110636;28;20291;-83
2022/03/10 11:23:10;;;;;;;;;;;12.40;97.20;;;;;;5096179;28;19932;-82
2022/03/10 11:25:54;;;;;;;;;;;12.60;95.20;;;;;;5146824;27;19924;-82
2022/03/10 11:28:22;;;;;;;;;;;12.90;94.80;;;;;;5130654;27;19924;-82
2022/03/10 11:30:49;;;;;;;;;;;13.30;94.40;;;;;;5113611;28;20008;-83
2022/03/10 11:33:18;;;;;;;;;;;13.60;94.50;;;;;;5112304;28;20420;-83
2022/03/10 11:35:45;;;;;;;;;;;13.90;93.30;;;;;;5130455;27;20391;-83
2022/03/10 11:38:11;;;;;;;;;;;14.10;92.40;;;;;;5112172;28;19927;-84
2022/03/10 11:40:43;;;;;;;;;;;14.30;90.40;;;;;;5114281;28;20317;-83
2022/03/10 11:43:09;;;;;;;;;;;14.30;87.90;;;;;;5149116;27;20568;-83
2022/03/10 11:45:35;;;;;;;;;;;14.30;88.50;;;;;;5130456;27;20022;-83
2022/03/10 11:48:19;;;;;;;;;;;14.50;89.30;;;;;;5130160;27;20014;-83
2022/03/10 11:50:45;;;;;;;;;;;14.50;86.60;;;;;;5112982;28;19935;-83
2022/03/10 11:53:12;;;;;;;;;;;14.30;82.00;;;;;;5128907;27;19924;-83
2022/03/10 11:55:38;;;;;;;;;;;14.40;83.70;;;;;;5096792;28;20256;-82
2022/03/10 11:58:05;;;;;;;;;;;14.10;84.50;;;;;;5112973;28;19970;-83
2022/03/10 12:01:01;;;;;;;;;;;14.00;84.60;;;;;;5096838;28;20022;-83
2022/03/10 12:03:28;;;;;;;;;;;14.00;82.50;;;;;;5096474;28;19923;-83
2022/03/10 12:05:55;;;;;;;;;;;13.80;80.30;;;;;;5113429;28;19928;-84
2022/03/10 12:08:21;;;;;;;;;;;13.90;82.40;;;;;;5113383;28;19930;-83
2022/03/10 12:10:50;;;;;;;;;;;13.80;83.60;;;;;;5113189;28;19959;-83
2022/03/10 12:13:23;;;;;;;;;;;13.90;84.80;;;;;;5113006;28;20010;-84
2022/03/10 12:15:50;;;;;;;;;;;14.40;84.50;;;;;;5113034;28;19927;-83
2022/03/10 12:18:17;;;;;;;;;;;14.80;81.20;;;;;;5112784;28;19927;-83
2022/03/10 12:20:44;;;;;;;;;;;15.00;78.60;;;;;;5113345;28;20368;-83
2022/03/10 12:23:15;;;;;;;;;;;15.10;76.40;;;;;;5095984;28;19928;-83
2022/03/10 12:25:46;;;;;;;;;;;15.30;77.00;;;;;;5097240;28;20368;-84
2022/03/10 12:28:24;;;;;;;;;;;15.30;75.00;;;;;;5104175;28;19923;-83
2022/03/10 12:30:51;;;;;;;;;;;15.30;75.80;;;;;;5111928;28;19924;-82
2022/03/10 12:33:18;;;;;;;;;;;15.30;71.00;;;;;;5113201;28;19932;-83
2022/03/10 12:35:44;;;;;;;;;;;15.50;73.10;;;;;;5112370;28;20367;-82
2022/03/10 12:38:10;;;;;;;;;;;15.50;69.20;;;;;;5112133;28;19930;-84
2022/03/10 12:40:36;;;;;;;;;;;15.70;70.40;;;;;;5112245;28;19931;-85
2022/03/10 12:43:09;;;;;;;;;;;15.50;66.20;;;;;;5112050;28;20392;-90
2022/03/10 12:46:00;;;;;;;;;;;15.40;64.10;;;;;;5112160;28;20015;-87
2022/03/10 12:48:31;;;;;;;;;;;15.30;68.00;;;;;;5091982;28;19924;-81
2022/03/10 12:50:57;;;;;;;;;;;15.30;67.20;;;;;;5113116;28;19931;-87
2022/03/10 12:53:22;;;;;;;;;;;15.20;65.80;;;;;;5147785;27;19924;-80
2022/03/10 12:55:55;;;;;;;;;;;15.30;67.70;;;;;;5095731;28;19931;-80
2022/03/10 12:58:31;;;;;;;;;;;15.40;62.70;;;;;;5112399;28;19974;-80
2022/03/10 13:01:06;;;;;;;;;;;15.70;64.10;;;;;;5113357;28;19927;-79
2022/03/10 13:03:36;;;;;;;;;;;15.90;65.90;;;;;;5113399;28;19924;-80
2022/03/10 13:06:02;;;;;;;;;;;15.90;65.00;;;;;;5112304;28;19978;-83
2022/03/10 13:08:28;;;;;;;;;;;15.70;60.40;;;;;;5112395;28;19967;-80
2022/03/10 13:10:58;;;;;;;;;;;15.50;62.50;;;;;;5079127;28;19931;-80
2022/03/10 13:13:27;;;;;;;;;;;15.40;62.40;;;;;;5112603;28;19924;-82
2022/03/10 13:16:04;;;;;;;;;;;15.30;63.50;;;;;;5112538;28;19924;-83
2022/03/10 13:18:42;;;;;;;;;;;15.50;63.80;;;;;;5095405;28;20317;-81
2022/03/10 13:21:08;;;;;;;;;;;15.50;64.10;;;;;;5112278;28;19931;-81
2022/03/10 13:23:34;;;;;;;;;;;15.50;63.30;;;;;;5077461;28;19924;-82
2022/03/10 13:25:59;;;;;;;;;;;15.30;62.40;;;;;;5109960;28;19928;-83
2022/03/10 13:28:25;;;;;;;;;;;15.40;63.30;;;;;;5145375;27;19931;-81
2022/03/10 13:30:51;;;;;;;;;;;15.50;65.30;;;;;;5112152;28;19971;-81
2022/03/10 13:33:17;;;;;;;;;;;15.50;65.30;;;;;;5128592;27;19932;-80
2022/03/10 13:35:44;;;;;;;;;;;15.60;67.20;;;;;;5109920;28;20398;-83
2022/03/10 13:38:19;;;;;;;;;;;15.40;63.50;;;;;;5092236;28;19931;-82
2022/03/10 13:40:46;;;;;;;;;;;15.50;64.70;;;;;;5092851;28;19935;-81
2022/03/10 13:43:26;;;;;;;;;;;15.60;61.90;;;;;;5095011;28;19975;-81
2022/03/10 13:45:52;;;;;;;;;;;15.80;61.50;;;;;;5095282;28;19962;-81
2022/03/10 13:48:22;;;;;;;;;;;16.20;62.30;;;;;;5114839;28;19927;-80
2022/03/10 13:50:48;;;;;;;;;;;16.20;61.30;;;;;;5116502;28;20299;-80
2022/03/10 13:53:14;;;;;;;;;;;16.50;62.20;;;;;;5098840;28;19931;-79
2022/03/10 13:55:45;;;;;;;;;;;16.60;58.30;;;;;;5116147;28;19923;-81
2022/03/10 13:58:11;;;;;;;;;;;16.80;59.70;;;;;;5098859;28;20265;-81
2022/03/10 14:00:37;;;;;;;;;;;17.20;57.80;;;;;;5115766;28;20303;-82
2022/03/10 14:03:03;;;;;;;;;;;17.60;57.30;;;;;;5116031;28;19930;-83
2022/03/10 14:05:38;;;;;;;;;;;17.90;57.20;;;;;;5132716;27;20032;-83
2022/03/10 14:08:30;;;;;;;;;;;18.30;56.90;;;;;;5099080;28;19972;-83
2022/03/10 14:10:55;;;;;;;;;;;18.60;52.60;;;;;;5113156;28;20003;-82
2022/03/10 14:13:21;;;;;;;;;;;18.60;52.40;;;;;;5140635;27;20410;-83
2022/03/10 14:15:50;;;;;;;;;;;18.40;51.70;;;;;;5129002;27;19924;-83
2022/03/10 14:18:15;;;;;;;;;;;18.80;52.90;;;;;;5107933;28;19924;-84
2022/03/10 14:20:44;;;;;;;;;;;19.10;52.60;;;;;;5141230;27;19931;-80
2022/03/10 14:23:10;;;;;;;;;;;19.20;51.90;;;;;;5128467;27;20018;-79
2022/03/10 14:25:44;;;;;;;;;;;19.30;51.30;;;;;;5132948;27;20014;-80
2022/03/10 14:28:10;;;;;;;;;;;19.10;49.90;;;;;;5133122;27;19928;-79
2022/03/10 14:30:36;;;;;;;;;;;19.30;53.60;;;;;;5115979;28;20303;-78